sensor_id;sensor_type;location;lat;lon;timestamp;P1;durP1;ratioP1;P2;durP2;ratioP2
71937;SDS011;59810;48.800;9.086;2022-10-16T00:01:15;3.93;;;1.00;;
71937;SDS011;59810;48.800;9.086;2022-10-16T00:03:42;6.10;;;1.10;;
71937;SDS011;59810;48.800;9.086;2022-10-16T00:06:09;6.63;;;0.88;;
71937;SDS011;59810;48.800;9.086;2022-10-16T00:08:35;7.00;;;1.13;;
71937;SDS011;59810;48.800;9.086;2022-10-16T00:11:12;2.60;;;0.90;;
71937;SDS011;59810;48.800;9.086;2022-10-16T00:13:41;3.67;;;1.10;;
71937;SDS011;59810;48.800;9.086;2022-10-16T00:16:10;4.05;;;1.08;;
71937;SDS011;59810;48.800;9.086;2022-10-16T00:18:37;6.30;;;1.08;;
71937;SDS011;59810;48.800;9.086;2022-10-16T00:21:04;4.83;;;1.20;;
71937;SDS011;59810;48.800;9.086;2022-10-16T00:23:30;7.63;;;1.42;;
71937;SDS011;59810;48.800;9.086;2022-10-16T00:25:57;5.28;;;1.10;;
71937;SDS011;59810;48.800;9.086;2022-10-16T00:28:25;5.50;;;1.05;;
71937;SDS011;59810;48.800;9.086;2022-10-16T00:30:51;2.07;;;0.80;;
71937;SDS011;59810;48.800;9.086;2022-10-16T00:33:17;2.65;;;0.80;;
71937;SDS011;59810;48.800;9.086;2022-10-16T00:35:42;3.27;;;0.90;;
71937;SDS011;59810;48.800;9.086;2022-10-16T00:38:08;7.82;;;1.00;;
71937;SDS011;59810;48.800;9.086;2022-10-16T00:40:34;4.90;;;1.13;;
71937;SDS011;59810;48.800;9.086;2022-10-16T00:42:59;5.65;;;1.00;;
71937;SDS011;59810;48.800;9.086;2022-10-16T00:45:24;5.57;;;1.20;;
71937;SDS011;59810;48.800;9.086;2022-10-16T00:47:50;3.30;;;1.47;;
71937;SDS011;59810;48.800;9.086;2022-10-16T00:50:27;4.07;;;1.05;;
71937;SDS011;59810;48.800;9.086;2022-10-16T00:52:55;2.58;;;0.98;;
71937;SDS011;59810;48.800;9.086;2022-10-16T00:55:21;7.43;;;1.10;;
71937;SDS011;59810;48.800;9.086;2022-10-16T00:57:47;2.97;;;1.00;;
71937;SDS011;59810;48.800;9.086;2022-10-16T01:00:16;2.30;;;0.80;;
71937;SDS011;59810;48.800;9.086;2022-10-16T01:02:44;3.63;;;1.20;;
71937;SDS011;59810;48.800;9.086;2022-10-16T01:05:16;2.63;;;0.95;;
71937;SDS011;59810;48.800;9.086;2022-10-16T01:07:47;4.40;;;0.90;;
71937;SDS011;59810;48.800;9.086;2022-10-16T01:10:30;5.25;;;1.10;;
71937;SDS011;59810;48.800;9.086;2022-10-16T01:15:56;4.47;;;1.00;;
71937;SDS011;59810;48.800;9.086;2022-10-16T01:18:34;5.43;;;1.17;;
71937;SDS011;59810;48.800;9.086;2022-10-16T01:21:08;3.25;;;1.00;;
71937;SDS011;59810;48.800;9.086;2022-10-16T01:26:36;4.33;;;1.03;;
71937;SDS011;59810;48.800;9.086;2022-10-16T01:31:56;4.13;;;1.00;;
71937;SDS011;59810;48.800;9.086;2022-10-16T01:34:29;5.65;;;1.20;;
71937;SDS011;59810;48.800;9.086;2022-10-16T01:37:02;5.32;;;1.00;;
71937;SDS011;59810;48.800;9.086;2022-10-16T01:39:35;2.00;;;0.80;;
71937;SDS011;59810;48.800;9.086;2022-10-16T01:42:08;5.68;;;1.00;;
71937;SDS011;59810;48.800;9.086;2022-10-16T01:44:36;3.35;;;0.80;;
71937;SDS011;59810;48.800;9.086;2022-10-16T01:47:04;5.25;;;1.10;;
71937;SDS011;59810;48.800;9.086;2022-10-16T01:49:33;3.72;;;1.20;;
71937;SDS011;59810;48.800;9.086;2022-10-16T01:52:02;3.43;;;1.07;;
71937;SDS011;59810;48.800;9.086;2022-10-16T01:54:33;7.93;;;1.17;;
71937;SDS011;59810;48.800;9.086;2022-10-16T01:57:04;4.70;;;1.20;;
71937;SDS011;59810;48.800;9.086;2022-10-16T01:59:32;3.28;;;0.82;;
71937;SDS011;59810;48.800;9.086;2022-10-16T02:02:01;4.40;;;1.00;;
71937;SDS011;59810;48.800;9.086;2022-10-16T02:04:53;2.60;;;0.93;;
71937;SDS011;59810;48.800;9.086;2022-10-16T02:07:23;3.00;;;1.08;;
71937;SDS011;59810;48.800;9.086;2022-10-16T02:09:49;3.37;;;0.80;;
71937;SDS011;59810;48.800;9.086;2022-10-16T02:12:15;4.30;;;0.90;;
71937;SDS011;59810;48.800;9.086;2022-10-16T02:14:59;2.80;;;0.90;;
71937;SDS011;59810;48.800;9.086;2022-10-16T02:17:27;3.20;;;1.00;;
71937;SDS011;59810;48.800;9.086;2022-10-16T02:19:53;4.90;;;0.90;;
71937;SDS011;59810;48.800;9.086;2022-10-16T02:22:34;2.85;;;0.85;;
71937;SDS011;59810;48.800;9.086;2022-10-16T02:25:10;7.80;;;1.02;;
71937;SDS011;59810;48.800;9.086;2022-10-16T02:27:47;3.87;;;0.83;;
71937;SDS011;59810;48.800;9.086;2022-10-16T02:30:30;3.70;;;1.00;;
71937;SDS011;59810;48.800;9.086;2022-10-16T02:33:02;4.15;;;0.80;;
71937;SDS011;59810;48.800;9.086;2022-10-16T02:35:30;7.55;;;1.23;;
71937;SDS011;59810;48.800;9.086;2022-10-16T02:37:57;3.50;;;1.00;;
71937;SDS011;59810;48.800;9.086;2022-10-16T02:40:24;4.60;;;0.80;;
71937;SDS011;59810;48.800;9.086;2022-10-16T02:42:51;4.80;;;0.88;;
71937;SDS011;59810;48.800;9.086;2022-10-16T02:45:18;4.72;;;1.10;;
71937;SDS011;59810;48.800;9.086;2022-10-16T02:47:43;5.67;;;1.00;;
71937;SDS011;59810;48.800;9.086;2022-10-16T02:50:09;4.87;;;1.20;;
71937;SDS011;59810;48.800;9.086;2022-10-16T02:52:34;4.57;;;0.83;;
71937;SDS011;59810;48.800;9.086;2022-10-16T02:55:00;4.30;;;0.70;;
71937;SDS011;59810;48.800;9.086;2022-10-16T02:57:28;4.35;;;0.70;;
71937;SDS011;59810;48.800;9.086;2022-10-16T02:59:53;4.37;;;1.00;;
71937;SDS011;59810;48.800;9.086;2022-10-16T03:02:21;2.75;;;0.80;;
71937;SDS011;59810;48.800;9.086;2022-10-16T03:04:46;3.77;;;0.90;;
71937;SDS011;59810;48.800;9.086;2022-10-16T03:07:14;3.67;;;0.98;;
71937;SDS011;59810;48.800;9.086;2022-10-16T03:09:39;3.30;;;1.00;;
71937;SDS011;59810;48.800;9.086;2022-10-16T03:12:05;3.10;;;1.10;;
71937;SDS011;59810;48.800;9.086;2022-10-16T03:14:30;5.07;;;1.20;;
71937;SDS011;59810;48.800;9.086;2022-10-16T03:16:56;4.83;;;0.90;;
71937;SDS011;59810;48.800;9.086;2022-10-16T03:19:21;5.40;;;1.20;;
71937;SDS011;59810;48.800;9.086;2022-10-16T03:21:46;5.63;;;0.90;;
71937;SDS011;59810;48.800;9.086;2022-10-16T03:24:11;3.87;;;0.80;;
71937;SDS011;59810;48.800;9.086;2022-10-16T03:26:37;5.70;;;1.00;;
71937;SDS011;59810;48.800;9.086;2022-10-16T03:29:03;3.83;;;1.00;;
71937;SDS011;59810;48.800;9.086;2022-10-16T03:31:29;3.70;;;1.10;;
71937;SDS011;59810;48.800;9.086;2022-10-16T03:33:54;5.32;;;1.08;;
71937;SDS011;59810;48.800;9.086;2022-10-16T03:36:20;4.07;;;0.93;;
71937;SDS011;59810;48.800;9.086;2022-10-16T03:38:45;4.43;;;0.90;;
71937;SDS011;59810;48.800;9.086;2022-10-16T03:41:11;3.00;;;1.10;;
71937;SDS011;59810;48.800;9.086;2022-10-16T03:43:36;3.78;;;1.02;;
71937;SDS011;59810;48.800;9.086;2022-10-16T03:46:01;7.63;;;1.13;;
71937;SDS011;59810;48.800;9.086;2022-10-16T03:48:27;3.40;;;1.00;;
71937;SDS011;59810;48.800;9.086;2022-10-16T03:50:52;4.60;;;1.03;;
71937;SDS011;59810;48.800;9.086;2022-10-16T03:53:17;4.90;;;1.23;;
71937;SDS011;59810;48.800;9.086;2022-10-16T03:55:43;5.75;;;1.10;;
71937;SDS011;59810;48.800;9.086;2022-10-16T03:58:10;3.28;;;0.90;;
71937;SDS011;59810;48.800;9.086;2022-10-16T04:00:35;4.03;;;0.93;;
71937;SDS011;59810;48.800;9.086;2022-10-16T04:03:01;2.73;;;0.70;;
71937;SDS011;59810;48.800;9.086;2022-10-16T04:05:26;5.07;;;1.03;;
71937;SDS011;59810;48.800;9.086;2022-10-16T04:07:51;6.03;;;1.03;;
71937;SDS011;59810;48.800;9.086;2022-10-16T04:10:20;9.27;;;1.35;;
71937;SDS011;59810;48.800;9.086;2022-10-16T04:12:45;6.80;;;1.00;;
71937;SDS011;59810;48.800;9.086;2022-10-16T04:15:10;11.30;;;1.13;;
71937;SDS011;59810;48.800;9.086;2022-10-16T04:17:36;4.50;;;1.00;;
71937;SDS011;59810;48.800;9.086;2022-10-16T04:20:01;9.43;;;1.10;;
71937;SDS011;59810;48.800;9.086;2022-10-16T04:22:27;5.00;;;1.33;;
71937;SDS011;59810;48.800;9.086;2022-10-16T04:24:53;5.60;;;1.30;;
71937;SDS011;59810;48.800;9.086;2022-10-16T04:27:18;5.00;;;0.90;;
71937;SDS011;59810;48.800;9.086;2022-10-16T04:29:43;4.03;;;0.97;;
71937;SDS011;59810;48.800;9.086;2022-10-16T04:32:09;4.13;;;0.90;;
71937;SDS011;59810;48.800;9.086;2022-10-16T04:34:38;3.40;;;1.00;;
71937;SDS011;59810;48.800;9.086;2022-10-16T04:37:04;3.05;;;1.02;;
71937;SDS011;59810;48.800;9.086;2022-10-16T04:39:30;6.20;;;0.90;;
71937;SDS011;59810;48.800;9.086;2022-10-16T04:41:55;2.87;;;1.00;;
71937;SDS011;59810;48.800;9.086;2022-10-16T04:44:21;5.63;;;1.10;;
71937;SDS011;59810;48.800;9.086;2022-10-16T04:46:46;11.15;;;1.30;;
71937;SDS011;59810;48.800;9.086;2022-10-16T04:49:12;4.27;;;1.10;;
71937;SDS011;59810;48.800;9.086;2022-10-16T04:51:37;7.38;;;0.88;;
71937;SDS011;59810;48.800;9.086;2022-10-16T04:54:03;7.30;;;0.90;;
71937;SDS011;59810;48.800;9.086;2022-10-16T04:56:28;3.30;;;0.93;;
71937;SDS011;59810;48.800;9.086;2022-10-16T04:58:54;7.50;;;1.10;;
71937;SDS011;59810;48.800;9.086;2022-10-16T05:01:22;6.03;;;1.15;;
71937;SDS011;59810;48.800;9.086;2022-10-16T05:03:47;5.50;;;1.00;;
71937;SDS011;59810;48.800;9.086;2022-10-16T05:06:12;3.60;;;1.07;;
71937;SDS011;59810;48.800;9.086;2022-10-16T05:08:38;5.03;;;0.90;;
71937;SDS011;59810;48.800;9.086;2022-10-16T05:11:03;2.83;;;0.93;;
71937;SDS011;59810;48.800;9.086;2022-10-16T05:13:29;2.40;;;0.90;;
71937;SDS011;59810;48.800;9.086;2022-10-16T05:15:54;6.33;;;1.00;;
71937;SDS011;59810;48.800;9.086;2022-10-16T05:18:19;5.13;;;1.17;;
71937;SDS011;59810;48.800;9.086;2022-10-16T05:20:45;3.57;;;0.80;;
71937;SDS011;59810;48.800;9.086;2022-10-16T05:23:10;5.13;;;1.03;;
71937;SDS011;59810;48.800;9.086;2022-10-16T05:25:38;4.82;;;1.10;;
71937;SDS011;59810;48.800;9.086;2022-10-16T05:28:04;4.05;;;1.10;;
71937;SDS011;59810;48.800;9.086;2022-10-16T05:30:31;5.82;;;1.17;;
71937;SDS011;59810;48.800;9.086;2022-10-16T05:32:57;4.20;;;1.03;;
71937;SDS011;59810;48.800;9.086;2022-10-16T05:35:22;3.93;;;1.20;;
71937;SDS011;59810;48.800;9.086;2022-10-16T05:37:47;18.67;;;1.93;;
71937;SDS011;59810;48.800;9.086;2022-10-16T05:40:13;5.27;;;0.83;;
71937;SDS011;59810;48.800;9.086;2022-10-16T05:42:39;2.95;;;1.00;;
71937;SDS011;59810;48.800;9.086;2022-10-16T05:45:05;3.35;;;1.10;;
71937;SDS011;59810;48.800;9.086;2022-10-16T05:47:32;5.60;;;1.20;;
71937;SDS011;59810;48.800;9.086;2022-10-16T05:49:57;5.50;;;1.25;;
71937;SDS011;59810;48.800;9.086;2022-10-16T05:52:26;3.72;;;1.00;;
71937;SDS011;59810;48.800;9.086;2022-10-16T05:54:52;4.07;;;0.93;;
71937;SDS011;59810;48.800;9.086;2022-10-16T05:57:17;3.67;;;0.90;;
71937;SDS011;59810;48.800;9.086;2022-10-16T05:59:42;5.88;;;0.82;;
71937;SDS011;59810;48.800;9.086;2022-10-16T06:02:11;3.47;;;1.10;;
71937;SDS011;59810;48.800;9.086;2022-10-16T06:04:40;4.50;;;1.05;;
71937;SDS011;59810;48.800;9.086;2022-10-16T06:07:05;3.47;;;1.10;;
71937;SDS011;59810;48.800;9.086;2022-10-16T06:09:30;3.80;;;1.10;;
71937;SDS011;59810;48.800;9.086;2022-10-16T06:11:56;4.63;;;1.25;;
71937;SDS011;59810;48.800;9.086;2022-10-16T06:14:21;2.33;;;0.90;;
71937;SDS011;59810;48.800;9.086;2022-10-16T06:16:49;4.22;;;1.40;;
71937;SDS011;59810;48.800;9.086;2022-10-16T06:19:15;4.90;;;1.20;;
71937;SDS011;59810;48.800;9.086;2022-10-16T06:21:41;4.07;;;1.20;;
71937;SDS011;59810;48.800;9.086;2022-10-16T06:24:06;3.97;;;1.10;;
71937;SDS011;59810;48.800;9.086;2022-10-16T06:26:32;3.73;;;1.10;;
71937;SDS011;59810;48.800;9.086;2022-10-16T06:28:58;3.67;;;0.97;;
71937;SDS011;59810;48.800;9.086;2022-10-16T06:31:24;2.50;;;0.93;;
71937;SDS011;59810;48.800;9.086;2022-10-16T06:33:54;3.08;;;1.10;;
71937;SDS011;59810;48.800;9.086;2022-10-16T06:36:21;2.85;;;1.30;;
71937;SDS011;59810;48.800;9.086;2022-10-16T06:38:47;3.17;;;0.90;;
71937;SDS011;59810;48.800;9.086;2022-10-16T06:41:16;5.13;;;1.33;;
71937;SDS011;59810;48.800;9.086;2022-10-16T06:43:45;5.78;;;1.20;;
71937;SDS011;59810;48.800;9.086;2022-10-16T06:46:11;3.33;;;1.20;;
71937;SDS011;59810;48.800;9.086;2022-10-16T06:48:38;4.43;;;1.00;;
71937;SDS011;59810;48.800;9.086;2022-10-16T06:51:05;5.50;;;1.00;;
71937;SDS011;59810;48.800;9.086;2022-10-16T06:53:33;6.68;;;1.08;;
71937;SDS011;59810;48.800;9.086;2022-10-16T06:56:09;4.37;;;1.10;;
71937;SDS011;59810;48.800;9.086;2022-10-16T06:58:36;4.47;;;1.52;;
71937;SDS011;59810;48.800;9.086;2022-10-16T07:01:02;5.22;;;1.40;;
71937;SDS011;59810;48.800;9.086;2022-10-16T07:03:28;11.32;;;1.70;;
71937;SDS011;59810;48.800;9.086;2022-10-16T07:05:53;5.13;;;1.40;;
71937;SDS011;59810;48.800;9.086;2022-10-16T07:08:19;3.87;;;1.10;;
71937;SDS011;59810;48.800;9.086;2022-10-16T07:10:44;4.93;;;1.20;;
71937;SDS011;59810;48.800;9.086;2022-10-16T07:13:09;5.73;;;1.20;;
71937;SDS011;59810;48.800;9.086;2022-10-16T07:15:38;2.85;;;1.02;;
71937;SDS011;59810;48.800;9.086;2022-10-16T07:18:03;3.77;;;1.00;;
71937;SDS011;59810;48.800;9.086;2022-10-16T07:20:31;4.32;;;1.02;;
71937;SDS011;59810;48.800;9.086;2022-10-16T07:22:56;3.17;;;1.37;;
71937;SDS011;59810;48.800;9.086;2022-10-16T07:25:22;6.78;;;1.20;;
71937;SDS011;59810;48.800;9.086;2022-10-16T07:27:47;2.83;;;1.00;;
71937;SDS011;59810;48.800;9.086;2022-10-16T07:30:12;4.30;;;1.00;;
71937;SDS011;59810;48.800;9.086;2022-10-16T07:32:38;4.30;;;1.10;;
71937;SDS011;59810;48.800;9.086;2022-10-16T07:35:05;4.10;;;0.90;;
71937;SDS011;59810;48.800;9.086;2022-10-16T07:37:31;3.42;;;0.95;;
71937;SDS011;59810;48.800;9.086;2022-10-16T07:39:59;2.77;;;0.97;;
71937;SDS011;59810;48.800;9.086;2022-10-16T07:42:27;2.90;;;1.10;;
71937;SDS011;59810;48.800;9.086;2022-10-16T07:44:52;2.97;;;0.80;;
71937;SDS011;59810;48.800;9.086;2022-10-16T07:47:19;3.53;;;0.90;;
71937;SDS011;59810;48.800;9.086;2022-10-16T07:49:45;4.20;;;1.10;;
71937;SDS011;59810;48.800;9.086;2022-10-16T07:52:11;3.30;;;1.00;;
71937;SDS011;59810;48.800;9.086;2022-10-16T07:54:36;3.95;;;1.38;;
71937;SDS011;59810;48.800;9.086;2022-10-16T07:57:01;5.20;;;1.13;;
71937;SDS011;59810;48.800;9.086;2022-10-16T07:59:27;8.93;;;1.23;;
71937;SDS011;59810;48.800;9.086;2022-10-16T08:01:55;5.93;;;1.02;;
71937;SDS011;59810;48.800;9.086;2022-10-16T08:04:20;3.83;;;0.93;;
71937;SDS011;59810;48.800;9.086;2022-10-16T08:06:48;6.47;;;1.23;;
71937;SDS011;59810;48.800;9.086;2022-10-16T08:09:14;3.63;;;0.90;;
71937;SDS011;59810;48.800;9.086;2022-10-16T08:11:39;5.17;;;1.17;;
71937;SDS011;59810;48.800;9.086;2022-10-16T08:14:04;3.28;;;0.90;;
71937;SDS011;59810;48.800;9.086;2022-10-16T08:16:30;6.03;;;1.13;;
71937;SDS011;59810;48.800;9.086;2022-10-16T08:18:55;3.63;;;1.00;;
71937;SDS011;59810;48.800;9.086;2022-10-16T08:21:21;4.53;;;1.40;;
71937;SDS011;59810;48.800;9.086;2022-10-16T08:23:50;4.70;;;1.30;;
71937;SDS011;59810;48.800;9.086;2022-10-16T08:26:17;3.05;;;1.00;;
71937;SDS011;59810;48.800;9.086;2022-10-16T08:28:44;5.93;;;1.17;;
71937;SDS011;59810;48.800;9.086;2022-10-16T08:31:11;3.92;;;0.90;;
71937;SDS011;59810;48.800;9.086;2022-10-16T08:33:38;6.57;;;1.20;;
71937;SDS011;59810;48.800;9.086;2022-10-16T08:36:06;3.40;;;0.93;;
71937;SDS011;59810;48.800;9.086;2022-10-16T08:38:32;6.07;;;1.10;;
71937;SDS011;59810;48.800;9.086;2022-10-16T08:49:13;3.65;;;1.10;;
71937;SDS011;59810;48.800;9.086;2022-10-16T08:51:39;5.80;;;1.00;;
71937;SDS011;59810;48.800;9.086;2022-10-16T08:54:26;4.88;;;0.90;;
71937;SDS011;59810;48.800;9.086;2022-10-16T08:56:56;2.77;;;1.03;;
71937;SDS011;59810;48.800;9.086;2022-10-16T08:59:26;5.35;;;0.90;;
71937;SDS011;59810;48.800;9.086;2022-10-16T09:01:51;3.55;;;0.82;;
71937;SDS011;59810;48.800;9.086;2022-10-16T09:12:23;7.78;;;1.30;;
71937;SDS011;59810;48.800;9.086;2022-10-16T09:17:42;3.83;;;0.95;;
71937;SDS011;59810;48.800;9.086;2022-10-16T09:20:19;4.60;;;0.80;;
71937;SDS011;59810;48.800;9.086;2022-10-16T09:23:14;5.10;;;0.93;;
71937;SDS011;59810;48.800;9.086;2022-10-16T09:25:42;3.47;;;0.90;;
71937;SDS011;59810;48.800;9.086;2022-10-16T09:28:12;4.43;;;1.10;;
71937;SDS011;59810;48.800;9.086;2022-10-16T09:30:38;2.45;;;0.88;;
71937;SDS011;59810;48.800;9.086;2022-10-16T09:33:04;3.67;;;0.93;;
71937;SDS011;59810;48.800;9.086;2022-10-16T09:35:32;5.18;;;0.98;;
71937;SDS011;59810;48.800;9.086;2022-10-16T09:38:00;5.75;;;0.95;;
71937;SDS011;59810;48.800;9.086;2022-10-16T09:43:15;3.85;;;0.88;;
71937;SDS011;59810;48.800;9.086;2022-10-16T09:45:53;4.43;;;0.98;;
71937;SDS011;59810;48.800;9.086;2022-10-16T09:48:39;3.70;;;1.00;;
71937;SDS011;59810;48.800;9.086;2022-10-16T09:51:20;2.97;;;0.83;;
71937;SDS011;59810;48.800;9.086;2022-10-16T09:53:49;6.82;;;1.13;;
71937;SDS011;59810;48.800;9.086;2022-10-16T09:56:33;3.08;;;0.90;;
71937;SDS011;59810;48.800;9.086;2022-10-16T09:59:16;4.05;;;1.10;;
71937;SDS011;59810;48.800;9.086;2022-10-16T10:04:24;5.37;;;1.23;;
71937;SDS011;59810;48.800;9.086;2022-10-16T10:06:57;5.20;;;1.08;;
71937;SDS011;59810;48.800;9.086;2022-10-16T10:09:23;2.38;;;0.90;;
71937;SDS011;59810;48.800;9.086;2022-10-16T10:14:24;4.53;;;1.05;;
71937;SDS011;59810;48.800;9.086;2022-10-16T10:19:30;3.58;;;1.00;;
71937;SDS011;59810;48.800;9.086;2022-10-16T10:22:24;3.20;;;1.08;;
71937;SDS011;59810;48.800;9.086;2022-10-16T10:30:14;4.13;;;1.00;;
71937;SDS011;59810;48.800;9.086;2022-10-16T10:43:55;2.57;;;1.07;;
71937;SDS011;59810;48.800;9.086;2022-10-16T10:46:36;4.43;;;1.20;;
71937;SDS011;59810;48.800;9.086;2022-10-16T10:52:01;3.53;;;1.00;;
71937;SDS011;59810;48.800;9.086;2022-10-16T10:54:55;3.58;;;1.35;;
71937;SDS011;59810;48.800;9.086;2022-10-16T10:57:31;3.53;;;1.37;;
71937;SDS011;59810;48.800;9.086;2022-10-16T11:00:19;3.67;;;1.08;;
71937;SDS011;59810;48.800;9.086;2022-10-16T11:06:14;5.30;;;1.20;;
71937;SDS011;59810;48.800;9.086;2022-10-16T11:11:26;4.93;;;1.53;;
71937;SDS011;59810;48.800;9.086;2022-10-16T11:14:00;4.38;;;1.25;;
71937;SDS011;59810;48.800;9.086;2022-10-16T11:16:31;5.32;;;1.40;;
71937;SDS011;59810;48.800;9.086;2022-10-16T11:21:39;3.53;;;1.40;;
71937;SDS011;59810;48.800;9.086;2022-10-16T11:24:23;4.47;;;1.20;;
71937;SDS011;59810;48.800;9.086;2022-10-16T11:27:07;6.43;;;1.38;;
71937;SDS011;59810;48.800;9.086;2022-10-16T11:29:40;3.83;;;1.15;;
71937;SDS011;59810;48.800;9.086;2022-10-16T11:32:21;2.80;;;1.23;;
71937;SDS011;59810;48.800;9.086;2022-10-16T11:34:55;3.10;;;1.10;;
71937;SDS011;59810;48.800;9.086;2022-10-16T11:37:25;3.27;;;1.10;;
71937;SDS011;59810;48.800;9.086;2022-10-16T11:40:19;6.05;;;1.30;;
71937;SDS011;59810;48.800;9.086;2022-10-16T11:42:48;2.53;;;1.30;;
71937;SDS011;59810;48.800;9.086;2022-10-16T11:45:23;5.43;;;1.20;;
71937;SDS011;59810;48.800;9.086;2022-10-16T11:54:34;3.65;;;1.10;;
71937;SDS011;59810;48.800;9.086;2022-10-16T11:57:11;3.35;;;1.30;;
71937;SDS011;59810;48.800;9.086;2022-10-16T11:59:53;4.55;;;1.30;;
71937;SDS011;59810;48.800;9.086;2022-10-16T12:05:39;3.73;;;1.20;;
71937;SDS011;59810;48.800;9.086;2022-10-16T12:07:51;3.75;;;1.33;;
71937;SDS011;59810;48.800;9.086;2022-10-16T12:10:28;5.53;;;1.52;;
71937;SDS011;59810;48.800;9.086;2022-10-16T12:12:56;5.72;;;1.40;;
71937;SDS011;59810;48.800;9.086;2022-10-16T12:15:29;12.13;;;2.00;;
71937;SDS011;59810;48.800;9.086;2022-10-16T12:17:56;4.40;;;1.57;;
71937;SDS011;59810;48.800;9.086;2022-10-16T12:25:43;3.63;;;1.17;;
71937;SDS011;59810;48.800;9.086;2022-10-16T12:28:26;3.40;;;1.30;;
71937;SDS011;59810;48.800;9.086;2022-10-16T12:33:34;5.45;;;1.40;;
71937;SDS011;59810;48.800;9.086;2022-10-16T12:36:05;2.78;;;1.20;;
71937;SDS011;59810;48.800;9.086;2022-10-16T12:38:47;5.18;;;1.50;;
71937;SDS011;59810;48.800;9.086;2022-10-16T12:41:24;4.10;;;1.57;;
71937;SDS011;59810;48.800;9.086;2022-10-16T12:43:51;6.93;;;1.70;;
71937;SDS011;59810;48.800;9.086;2022-10-16T12:48:43;6.27;;;1.43;;
71937;SDS011;59810;48.800;9.086;2022-10-16T12:53:37;3.67;;;1.25;;
71937;SDS011;59810;48.800;9.086;2022-10-16T12:58:59;4.57;;;1.33;;
71937;SDS011;59810;48.800;9.086;2022-10-16T13:12:23;7.60;;;1.40;;
71937;SDS011;59810;48.800;9.086;2022-10-16T13:15:22;8.50;;;1.70;;
71937;SDS011;59810;48.800;9.086;2022-10-16T13:18:06;4.53;;;1.60;;
71937;SDS011;59810;48.800;9.086;2022-10-16T13:23:29;4.47;;;1.40;;
71937;SDS011;59810;48.800;9.086;2022-10-16T13:28:59;5.23;;;2.10;;
71937;SDS011;59810;48.800;9.086;2022-10-16T13:31:26;4.65;;;1.58;;
71937;SDS011;59810;48.800;9.086;2022-10-16T13:33:55;5.28;;;1.55;;
71937;SDS011;59810;48.800;9.086;2022-10-16T13:36:42;5.10;;;1.60;;
71937;SDS011;59810;48.800;9.086;2022-10-16T13:39:11;6.07;;;1.90;;
71937;SDS011;59810;48.800;9.086;2022-10-16T13:41:38;6.67;;;2.20;;
71937;SDS011;59810;48.800;9.086;2022-10-16T13:44:04;5.47;;;1.55;;
71937;SDS011;59810;48.800;9.086;2022-10-16T13:46:34;7.50;;;1.85;;
71937;SDS011;59810;48.800;9.086;2022-10-16T13:49:00;5.47;;;1.60;;
71937;SDS011;59810;48.800;9.086;2022-10-16T13:51:28;4.15;;;1.77;;
71937;SDS011;59810;48.800;9.086;2022-10-16T13:53:55;5.83;;;1.77;;
71937;SDS011;59810;48.800;9.086;2022-10-16T13:56:25;9.38;;;2.40;;
71937;SDS011;59810;48.800;9.086;2022-10-16T14:01:43;8.82;;;2.03;;
71937;SDS011;59810;48.800;9.086;2022-10-16T14:04:09;6.75;;;1.63;;
71937;SDS011;59810;48.800;9.086;2022-10-16T14:06:39;4.27;;;1.70;;
71937;SDS011;59810;48.800;9.086;2022-10-16T14:09:25;8.07;;;2.00;;
71937;SDS011;59810;48.800;9.086;2022-10-16T14:11:56;6.53;;;1.63;;
71937;SDS011;59810;48.800;9.086;2022-10-16T14:14:59;6.63;;;1.33;;
71937;SDS011;59810;48.800;9.086;2022-10-16T14:17:22;6.93;;;2.28;;
71937;SDS011;59810;48.800;9.086;2022-10-16T14:19:50;8.07;;;1.93;;
71937;SDS011;59810;48.800;9.086;2022-10-16T14:22:23;5.68;;;2.35;;
71937;SDS011;59810;48.800;9.086;2022-10-16T14:24:53;9.57;;;1.85;;
71937;SDS011;59810;48.800;9.086;2022-10-16T14:27:29;8.27;;;2.00;;
71937;SDS011;59810;48.800;9.086;2022-10-16T14:32:42;4.95;;;1.92;;
71937;SDS011;59810;48.800;9.086;2022-10-16T14:35:25;6.45;;;1.90;;
71937;SDS011;59810;48.800;9.086;2022-10-16T14:38:01;6.43;;;1.50;;
71937;SDS011;59810;48.800;9.086;2022-10-16T14:40:29;10.38;;;1.73;;
71937;SDS011;59810;48.800;9.086;2022-10-16T14:42:56;13.45;;;2.80;;
71937;SDS011;59810;48.800;9.086;2022-10-16T14:45:24;11.63;;;2.70;;
71937;SDS011;59810;48.800;9.086;2022-10-16T14:47:52;13.27;;;2.00;;
71937;SDS011;59810;48.800;9.086;2022-10-16T14:50:21;8.67;;;1.60;;
71937;SDS011;59810;48.800;9.086;2022-10-16T14:52:47;8.77;;;1.90;;
71937;SDS011;59810;48.800;9.086;2022-10-16T14:55:12;9.15;;;1.90;;
71937;SDS011;59810;48.800;9.086;2022-10-16T14:57:38;9.10;;;1.60;;
71937;SDS011;59810;48.800;9.086;2022-10-16T15:00:18;7.80;;;1.30;;
71937;SDS011;59810;48.800;9.086;2022-10-16T15:02:45;10.10;;;1.85;;
71937;SDS011;59810;48.800;9.086;2022-10-16T15:07:42;13.60;;;1.90;;
71937;SDS011;59810;48.800;9.086;2022-10-16T15:10:08;8.98;;;2.13;;
71937;SDS011;59810;48.800;9.086;2022-10-16T15:12:36;6.63;;;1.80;;
71937;SDS011;59810;48.800;9.086;2022-10-16T15:15:05;11.18;;;1.90;;
71937;SDS011;59810;48.800;9.086;2022-10-16T15:17:49;13.90;;;1.90;;
71937;SDS011;59810;48.800;9.086;2022-10-16T15:20:18;9.75;;;3.13;;
71937;SDS011;59810;48.800;9.086;2022-10-16T15:22:44;9.20;;;1.95;;
71937;SDS011;59810;48.800;9.086;2022-10-16T15:27:57;10.30;;;1.73;;
71937;SDS011;59810;48.800;9.086;2022-10-16T15:30:23;7.07;;;1.70;;
71937;SDS011;59810;48.800;9.086;2022-10-16T15:32:51;8.20;;;1.80;;
71937;SDS011;59810;48.800;9.086;2022-10-16T15:35:16;13.38;;;2.03;;
71937;SDS011;59810;48.800;9.086;2022-10-16T15:37:42;6.27;;;1.70;;
71937;SDS011;59810;48.800;9.086;2022-10-16T15:40:08;11.20;;;1.40;;
71937;SDS011;59810;48.800;9.086;2022-10-16T15:42:35;12.63;;;2.00;;
71937;SDS011;59810;48.800;9.086;2022-10-16T15:45:00;15.88;;;2.00;;
71937;SDS011;59810;48.800;9.086;2022-10-16T15:47:26;9.30;;;1.87;;
71937;SDS011;59810;48.800;9.086;2022-10-16T15:49:53;5.07;;;1.25;;
71937;SDS011;59810;48.800;9.086;2022-10-16T15:52:19;7.87;;;1.70;;
71937;SDS011;59810;48.800;9.086;2022-10-16T15:54:44;10.73;;;1.60;;
71937;SDS011;59810;48.800;9.086;2022-10-16T15:57:09;8.13;;;1.70;;
71937;SDS011;59810;48.800;9.086;2022-10-16T15:59:37;6.53;;;1.70;;
71937;SDS011;59810;48.800;9.086;2022-10-16T16:02:02;11.73;;;2.07;;
71937;SDS011;59810;48.800;9.086;2022-10-16T16:04:31;9.47;;;1.60;;
71937;SDS011;59810;48.800;9.086;2022-10-16T16:06:56;6.80;;;1.70;;
71937;SDS011;59810;48.800;9.086;2022-10-16T16:09:22;6.40;;;1.23;;
71937;SDS011;59810;48.800;9.086;2022-10-16T16:11:49;8.00;;;1.50;;
71937;SDS011;59810;48.800;9.086;2022-10-16T16:14:17;12.25;;;1.70;;
71937;SDS011;59810;48.800;9.086;2022-10-16T16:16:42;10.20;;;2.00;;
71937;SDS011;59810;48.800;9.086;2022-10-16T16:19:07;9.03;;;1.90;;
71937;SDS011;59810;48.800;9.086;2022-10-16T16:21:34;9.03;;;1.83;;
71937;SDS011;59810;48.800;9.086;2022-10-16T16:24:01;11.60;;;1.90;;
71937;SDS011;59810;48.800;9.086;2022-10-16T16:26:33;6.68;;;1.83;;
71937;SDS011;59810;48.800;9.086;2022-10-16T16:29:01;14.45;;;2.33;;
71937;SDS011;59810;48.800;9.086;2022-10-16T16:31:28;6.60;;;1.67;;
71937;SDS011;59810;48.800;9.086;2022-10-16T16:33:55;11.63;;;2.10;;
71937;SDS011;59810;48.800;9.086;2022-10-16T16:36:22;9.48;;;2.00;;
71937;SDS011;59810;48.800;9.086;2022-10-16T16:38:49;14.82;;;2.20;;
71937;SDS011;59810;48.800;9.086;2022-10-16T16:41:19;7.93;;;1.80;;
71937;SDS011;59810;48.800;9.086;2022-10-16T16:43:46;8.80;;;2.20;;
71937;SDS011;59810;48.800;9.086;2022-10-16T16:46:18;8.03;;;1.97;;
71937;SDS011;59810;48.800;9.086;2022-10-16T16:48:49;6.68;;;1.80;;
71937;SDS011;59810;48.800;9.086;2022-10-16T16:51:15;11.45;;;2.03;;
71937;SDS011;59810;48.800;9.086;2022-10-16T16:53:45;9.15;;;1.70;;
71937;SDS011;59810;48.800;9.086;2022-10-16T16:56:12;10.90;;;2.00;;